Home   Weather   City of Colville   Past weeks
Flag for USA

Past Weather in City of Colville, Washington, USA — October 2020

Currently: 28 °F. Clear. (Weather station: Sandpoint Airport, USA). See more current weather

October 2020 Weather in City of Colville — Graph

°F

High & Low Weather Summary for October 2020

 TemperatureHumidityPressure
High77 °F (Oct 6, 3:15 pm)100% (Oct 1, 12:35 am)30.61 "Hg (Oct 1, 12:35 am)
Low19 °F (Oct 25, 5:55 am)27% (Oct 5, 3:55 pm)29.53 "Hg (Oct 10, 1:55 pm)
Average44 °F75%30.09 "Hg
* Reported Oct 1 12:35 am — Oct 31 11:55 pm, City of Colville. Weather by CustomWeather, © 2021

Note: Actual official high and low records may vary slightly from our data, if they occured in-between our weather recording intervals... More about our weather records

City of Colville Weather History for October 1, 2020

Scroll right to see more
 ConditionsComfort  
Time TempWeatherWind HumidityBarometerVisibility
12:35 am
Thu, Oct 1
45 °FClear.No wind100%30.31 "Hg10 mi
12:55 am43 °FClear.No wind100%30.31 "Hg10 mi
1:15 am43 °FFog.No wind100%30.32 "Hg5 mi
1:35 am43 °FClear.No wind100%30.32 "Hg10 mi
1:55 am43 °FFog.No wind93%30.32 "Hg4 mi
2:15 am43 °FClear.No wind100%30.32 "Hg10 mi
2:35 am43 °FClear.No wind100%30.32 "Hg7 mi
2:55 am43 °FFog.No wind100%30.31 "Hg2 mi
3:15 am41 °FClear.No wind100%30.31 "Hg7 mi
3:35 am41 °FFog.No wind100%30.31 "Hg4 mi
3:55 am41 °FFog.No wind100%30.31 "Hg1 mi
4:15 am41 °FFog.No wind100%30.31 "Hg1 mi
4:35 am41 °FPassing clouds.No wind93%30.31 "Hg10 mi
4:55 am43 °FClear.No wind100%30.31 "Hg10 mi
5:15 am41 °FFog.No wind100%30.32 "Hg1 mi
5:35 am41 °FFog.No wind93%30.32 "Hg4 mi
5:55 am41 °FFog.No wind100%30.32 "Hg1 mi
6:15 am41 °FFog.No wind100%30.32 "Hg1 mi
6:35 am41 °FFog.No wind100%30.32 "Hg1 mi
6:55 am41 °FFog.No wind100%30.32 "Hg0 mi
7:15 am41 °FFog.No wind100%30.32 "Hg1 mi
7:35 am41 °FSunny.No wind100%30.33 "Hg7 mi
7:55 am43 °FSunny.No wind100%30.33 "Hg10 mi
8:15 am45 °FSunny.No wind100%30.32 "Hg10 mi
8:35 am46 °FSunny.No wind100%30.32 "Hg10 mi
8:55 am50 °FSunny.No wind100%30.32 "Hg10 mi
9:15 am52 °FSunny.No wind82%30.33 "Hg10 mi
9:35 am52 °FSunny.No wind82%30.33 "Hg10 mi
9:55 am54 °FSunny.No wind77%30.33 "Hg10 mi
10:15 am55 °FSunny.No wind72%30.32 "Hg10 mi
10:35 am55 °FSunny.No wind72%30.32 "Hg10 mi
10:55 am55 °FSunny.No wind72%30.31 "Hg10 mi
11:15 am59 °FSunny.3 mph68%30.31 "Hg10 mi
11:35 am59 °FSunny.3 mph68%30.31 "Hg7 mi
11:55 am61 °FSunny.6 mph59%30.31 "Hg10 mi
12:15 pm61 °FSunny.5 mph59%30.30 "Hg10 mi
12:35 pm61 °FSunny.7 mph59%30.30 "Hg10 mi
1:15 pm61 °FSunny.3 mph68%30.29 "Hg10 mi
1:35 pm61 °FSunny.No wind68%30.28 "Hg10 mi
1:55 pm63 °FSunny.No wind64%30.28 "Hg10 mi
2:15 pm63 °FSunny.No wind59%30.27 "Hg10 mi
2:35 pm63 °FSunny.No wind59%30.27 "Hg10 mi
2:55 pm63 °FSunny.No wind64%30.26 "Hg10 mi
3:15 pm64 °FSunny.No wind60%30.26 "Hg10 mi
3:35 pm63 °FSunny.No wind64%30.25 "Hg10 mi
3:55 pm61 °FSunny.3 mph63%30.25 "Hg10 mi
4:15 pm63 °FSunny.3 mph64%30.24 "Hg10 mi
4:35 pm61 °FSunny.No wind68%30.25 "Hg10 mi
4:55 pm61 °FSunny.No wind68%30.23 "Hg10 mi
5:15 pm61 °FSunny.3 mph68%30.24 "Hg10 mi
5:55 pm61 °FSunny.3 mph72%30.24 "Hg10 mi
6:15 pm59 °FSunny.No wind77%30.23 "Hg10 mi
6:35 pm55 °FClear.5 mph88%30.23 "Hg10 mi
6:55 pm55 °FClear.No wind88%30.23 "Hg10 mi
7:15 pm55 °FClear.No wind88%30.23 "Hg10 mi
7:35 pm54 °FClear.No wind94%30.23 "Hg10 mi
7:55 pm54 °FClear.No wind94%30.22 "Hg10 mi
8:15 pm54 °FClear.No wind94%30.22 "Hg10 mi
8:35 pm54 °FClear.3 mph94%30.23 "Hg10 mi
8:55 pm54 °FClear.No wind94%30.22 "Hg10 mi
9:15 pm52 °FClear.No wind100%30.22 "Hg10 mi
9:35 pm54 °FClear.No wind94%30.22 "Hg10 mi
9:55 pm52 °FClear.No wind100%30.22 "Hg10 mi
10:15 pm52 °FClear.No wind100%30.22 "Hg10 mi
10:35 pm52 °FClear.No wind100%30.21 "Hg10 mi
10:55 pm52 °FClear.No wind94%30.22 "Hg10 mi
11:35 pm52 °FClear.No wind94%30.22 "Hg10 mi
11:55 pm50 °FClear.No wind100%30.22 "Hg10 mi
Weather by CustomWeather, © 2021

See weather overview